Time;durP1;ratioP1;P1;durP2;ratioP2;P2;SDS_P1;SDS_P2;PMS_P1;PMS_P2;Temp;Humidity;BMP_temperature;BMP_pressure;BME280_temperature;BME280_humidity;BME280_pressure;Samples;Min_cycle;Max_cycle;Signal;HPM_P1;HPM_P2
2022/12/02 00:03:45;;;;;;;49.10;27.73;;;;;;;4.68;61.54;100579.91;10436705;28;20068;-65
2022/12/02 00:08:46;;;;;;;46.65;26.95;;;;;;;4.72;61.16;100582.41;10440141;28;20135;-64
2022/12/02 00:13:49;;;;;;;48.22;26.67;;;;;;;4.74;61.54;100584.13;10438376;28;20037;-64
2022/12/02 00:18:51;;;;;;;50.08;27.15;;;;;;;4.75;61.46;100576.28;10434980;28;20063;-64
2022/12/02 00:23:53;;;;;;;48.67;27.25;;;;;;;4.68;61.47;100579.91;10431230;28;20049;-64
2022/12/02 00:28:54;;;;;;;50.47;28.05;;;;;;;4.72;61.36;100572.03;10433050;28;20529;-64
2022/12/02 00:33:56;;;;;;;48.92;28.15;;;;;;;4.80;61.64;100571.00;10431950;28;20072;-64
2022/12/02 00:38:58;;;;;;;53.10;28.63;;;;;;;4.82;61.30;100572.63;10441985;28;20049;-65
2022/12/02 00:49:21;;;;;;;50.28;28.45;;;;;;;4.79;61.35;100558.91;10432106;28;20049;-65
2022/12/02 00:54:22;;;;;;;56.00;29.23;;;;;;;4.50;61.59;100554.47;10431167;28;20049;-64
2022/12/02 00:59:24;;;;;;;53.85;28.52;;;;;;;4.42;61.83;100551.22;10437049;28;20422;-64
2022/12/02 01:04:25;;;;;;;50.85;28.55;;;;;;;4.50;62.00;100552.75;10431919;28;20057;-65
2022/12/02 01:09:27;;;;;;;56.53;29.95;;;;;;;4.40;62.01;100546.09;10430658;28;20051;-64
2022/12/02 01:14:29;;;;;;;56.15;28.88;;;;;;;4.27;62.41;100536.09;10430371;28;20049;-64
2022/12/02 01:19:30;;;;;;;52.60;28.38;;;;;;;4.54;62.29;100541.41;10429904;28;20049;-64
2022/12/02 01:24:32;;;;;;;57.15;30.63;;;;;;;4.59;61.75;100542.16;10429163;28;20075;-64
2022/12/02 01:29:33;;;;;;;55.63;29.98;;;;;;;4.55;62.01;100543.13;10428722;28;20071;-64
2022/12/02 01:34:35;;;;;;;49.58;26.98;;;;;;;4.44;62.24;100546.88;10429564;28;20044;-64
2022/12/02 01:39:37;;;;;;;56.47;28.98;;;;;;;4.58;62.13;100548.22;10442862;28;20066;-64
2022/12/02 01:44:38;;;;;;;53.53;29.02;;;;;;;4.60;61.87;100551.63;10434717;28;20369;-64
2022/12/02 01:49:40;;;;;;;53.33;28.35;;;;;;;4.47;62.27;100545.06;10429906;28;20045;-64
2022/12/02 01:54:42;;;;;;;57.63;28.90;;;;;;;4.46;62.09;100545.09;10472454;28;20053;-64
2022/12/02 01:59:43;;;;;;;54.20;28.08;;;;;;;4.53;62.02;100536.28;10427932;28;20063;-64
2022/12/02 02:04:45;;;;;;;53.05;28.42;;;;;;;4.38;62.20;100544.44;10432011;28;20055;-66
2022/12/02 02:09:47;;;;;;;55.42;29.50;;;;;;;4.29;62.51;100547.25;10431594;28;20481;-64
2022/12/02 02:14:48;;;;;;;54.58;28.52;;;;;;;4.23;62.40;100539.66;10428563;28;20488;-64
2022/12/02 02:19:51;;;;;;;55.20;28.83;;;;;;;4.21;62.68;100539.66;10427031;28;20461;-66
2022/12/02 02:24:52;;;;;;;51.92;28.15;;;;;;;4.23;62.31;100539.66;10428938;28;20056;-66
2022/12/02 02:29:54;;;;;;;59.67;30.02;;;;;;;4.20;62.47;100537.97;10434551;28;20489;-66
2022/12/02 02:34:56;;;;;;;54.67;28.52;;;;;;;4.11;62.62;100527.00;10426800;28;20044;-66
2022/12/02 02:39:58;;;;;;;58.80;29.45;;;;;;;4.16;62.76;100528.56;10425957;28;20684;-65
2022/12/02 02:45:02;;;;;;;53.20;28.75;;;;;;;4.15;62.67;100523.44;10428031;28;20053;-65
2022/12/02 02:50:05;;;;;;;59.88;31.42;;;;;;;4.18;62.67;100521.63;10436759;28;20049;-66
2022/12/02 02:55:11;;;;;;;59.00;29.92;;;;;;;4.40;62.35;100517.63;10427185;28;20496;-66
2022/12/02 03:00:13;;;;;;;58.10;30.35;;;;;;;4.59;62.47;100511.09;10426300;28;20059;-65
2022/12/02 03:05:15;;;;;;;60.15;30.88;;;;;;;4.68;62.02;100508.22;10442398;28;20048;-65
2022/12/02 03:10:18;;;;;;;63.90;31.80;;;;;;;4.62;62.00;100500.63;10433230;28;20049;-65
2022/12/02 03:15:24;;;;;;;62.47;30.23;;;;;;;4.75;61.96;100492.53;10435489;28;20048;-65
2022/12/02 03:20:26;;;;;;;58.30;30.48;;;;;;;4.63;61.88;100496.31;10434271;28;20053;-66
2022/12/02 03:25:29;;;;;;;58.97;30.58;;;;;;;4.61;62.11;100496.34;10456418;28;20052;-65
2022/12/02 03:30:31;;;;;;;59.40;31.30;;;;;;;4.55;62.11;100495.66;10432628;28;20068;-65
2022/12/02 03:35:33;;;;;;;59.08;30.30;;;;;;;4.56;62.41;100495.59;10438871;28;20052;-65
2022/12/02 03:40:35;;;;;;;62.60;30.60;;;;;;;4.72;62.07;100483.06;10432128;28;20519;-65
2022/12/02 03:45:37;;;;;;;59.20;30.35;;;;;;;4.70;62.03;100484.88;10449353;28;20107;-65
2022/12/02 03:50:40;;;;;;;62.05;31.52;;;;;;;4.54;62.19;100478.41;10440040;28;20049;-66
2022/12/02 03:55:41;;;;;;;57.63;30.02;;;;;;;4.43;62.41;100475.25;10442866;28;20044;-66
2022/12/02 04:00:43;;;;;;;58.15;30.55;;;;;;;4.35;62.52;100482.38;10439512;28;20056;-65
2022/12/02 04:05:45;;;;;;;61.28;31.05;;;;;;;4.27;62.65;100474.78;10435440;28;20048;-65
2022/12/02 04:10:50;;;;;;;60.17;31.05;;;;;;;4.45;62.78;100461.38;10437853;28;20505;-66
2022/12/02 04:15:51;;;;;;;59.08;30.15;;;;;;;4.61;62.48;100454.91;10448191;28;20128;-66
2022/12/02 04:20:53;;;;;;;58.80;29.77;;;;;;;4.56;62.37;100450.72;10442943;28;20057;-65
2022/12/02 04:25:55;;;;;;;57.08;29.80;;;;;;;4.58;62.18;100442.03;10432020;28;20374;-65
2022/12/02 04:30:56;;;;;;;56.45;30.30;;;;;;;4.68;62.20;100435.69;10441107;28;20167;-66
2022/12/02 04:35:58;;;;;;;57.50;30.05;;;;;;;4.73;62.15;100430.38;10431379;28;20053;-65
2022/12/02 04:41:00;;;;;;;58.88;29.67;;;;;;;4.71;62.13;100427.00;10435992;28;20053;-67
2022/12/02 04:46:01;;;;;;;52.83;28.73;;;;;;;4.64;62.30;100423.72;10431179;28;20056;-66
2022/12/02 04:51:03;;;;;;;53.00;28.90;;;;;;;4.57;62.50;100424.78;10430951;28;20045;-65
2022/12/02 04:56:05;;;;;;;55.00;29.98;;;;;;;4.64;62.54;100418.53;10430720;28;20049;-65
2022/12/02 05:01:07;;;;;;;55.92;29.42;;;;;;;4.51;62.02;100419.78;10430254;28;20046;-66
2022/12/02 05:06:08;;;;;;;55.92;29.45;;;;;;;4.20;62.45;100426.66;10430675;28;20049;-65
2022/12/02 05:11:10;;;;;;;57.60;29.60;;;;;;;4.23;63.00;100420.56;10434938;28;20051;-64
2022/12/02 05:16:11;;;;;;;55.03;29.25;;;;;;;4.31;62.53;100414.25;10430744;28;20293;-64
2022/12/02 05:21:13;;;;;;;55.72;30.55;;;;;;;4.29;62.78;100413.44;10430283;28;20083;-64
2022/12/02 05:26:15;;;;;;;54.35;29.20;;;;;;;4.26;62.72;100410.97;10429322;28;20049;-64
2022/12/02 05:31:16;;;;;;;50.70;27.75;;;;;;;4.38;62.83;100409.78;10428334;28;20512;-64
2022/12/02 05:36:18;;;;;;;50.85;28.08;;;;;;;4.37;62.47;100411.50;10429089;28;20295;-64
2022/12/02 05:41:20;;;;;;;48.45;26.58;;;;;;;4.33;62.13;100407.31;10434283;28;20401;-64
2022/12/02 05:46:21;;;;;;;47.90;26.45;;;;;;;4.19;62.68;100411.16;10429195;28;20500;-64
2022/12/02 05:51:25;;;;;;;49.33;27.23;;;;;;;4.28;62.57;100406.59;10436807;28;20504;-65
2022/12/02 05:56:27;;;;;;;47.30;26.75;;;;;;;4.13;62.36;100412.16;10434144;28;20045;-64
2022/12/02 06:01:36;;;;;;;47.92;25.60;;;;;;;4.23;62.39;100405.84;10427269;28;20771;-64
2022/12/02 06:06:38;;;;;;;48.20;26.05;;;;;;;4.10;62.19;100404.50;10427013;28;20317;-64
2022/12/02 06:11:40;;;;;;;53.97;27.55;;;;;;;3.98;62.65;100409.97;10426083;28;20493;-65
2022/12/02 06:16:46;;;;;;;52.80;27.63;;;;;;;4.14;62.12;100406.09;10445453;28;20045;-65
2022/12/02 06:21:48;;;;;;;53.00;28.98;;;;;;;4.19;62.50;100411.16;10430567;28;20450;-64
2022/12/02 06:26:51;;;;;;;51.80;29.13;;;;;;;4.19;62.52;100403.41;10449031;28;20048;-64
2022/12/02 06:31:53;;;;;;;54.67;28.90;;;;;;;4.01;62.46;100404.72;10436596;28;20490;-64
2022/12/02 06:36:57;;;;;;;56.42;29.52;;;;;;;3.86;62.80;100407.72;10434715;28;20057;-63
2022/12/02 06:42:02;;;;;;;55.90;29.42;;;;;;;3.84;62.97;100406.91;10428742;28;20048;-65
2022/12/02 06:47:36;;;;;;;53.50;29.02;;;;;;;3.83;63.18;100405.16;10429359;28;20059;-64
2022/12/02 06:52:41;;;;;;;52.40;28.00;;;;;;;3.87;63.06;100406.81;10426705;28;20044;-64
2022/12/02 06:57:43;;;;;;;53.83;29.92;;;;;;;3.88;63.22;100408.50;10435204;28;20049;-64
2022/12/02 07:02:45;;;;;;;57.80;28.88;;;;;;;3.82;63.17;100406.88;10427385;28;20048;-65
2022/12/02 07:07:47;;;;;;;53.65;29.27;;;;;;;3.71;63.08;100406.31;10427631;28;20052;-64
2022/12/02 07:12:49;;;;;;;52.63;27.80;;;;;;;3.67;63.34;100401.25;10434374;28;20072;-64
2022/12/02 07:17:50;;;;;;;45.72;26.38;;;;;;;3.68;63.28;100403.78;10429009;28;20064;-66
2022/12/02 07:23:19;;;;;;;54.53;28.08;;;;;;;3.86;63.07;100405.94;10435269;28;20516;-65
2022/12/02 07:28:24;;;;;;;52.88;27.25;;;;;;;3.85;62.85;100401.69;10437268;28;20057;-65
2022/12/02 07:33:26;;;;;;;49.65;26.45;;;;;;;3.77;62.89;100406.16;10433778;28;20052;-65
2022/12/02 07:38:27;;;;;;;44.45;24.75;;;;;;;3.86;63.04;100402.53;10433709;28;20416;-66
2022/12/02 07:43:49;;;;;;;;;;;;;;;3.48;63.16;100403.41;10432688;28;20106;-66
2022/12/02 07:48:50;;;;;;;43.85;23.67;;;;;;;3.60;63.22;100404.88;10433303;28;20407;-65
2022/12/02 07:53:57;;;;;;;39.40;23.05;;;;;;;3.58;63.30;100399.72;10432337;28;20706;-65
2022/12/02 07:59:01;;;;;;;45.53;25.17;;;;;;;3.65;63.14;100405.59;10428703;28;20064;-65
2022/12/02 08:04:13;;;;;;;41.08;22.23;;;;;;;3.40;63.20;100412.22;10433219;28;20053;-64
2022/12/02 08:09:15;;;;;;;42.90;23.25;;;;;;;3.23;64.06;100409.19;10433036;28;20284;-65
2022/12/02 08:14:16;;;;;;;39.63;21.27;;;;;;;3.30;64.10;100413.31;10433494;28;20500;-65
2022/12/02 08:19:18;;;;;;;41.70;22.98;;;;;;;3.20;64.79;100417.00;10431150;28;20053;-65
2022/12/02 08:24:20;;;;;;;35.53;20.58;;;;;;;3.20;64.60;100422.16;10431908;28;20481;-65
2022/12/02 08:29:21;;;;;;;33.78;19.95;;;;;;;3.29;64.45;100411.63;10427881;28;20084;-64
2022/12/02 08:34:23;;;;;;;34.33;19.50;;;;;;;3.21;64.55;100408.38;10451243;28;20056;-65
2022/12/02 08:39:25;;;;;;;33.42;20.33;;;;;;;2.98;65.11;100403.69;10429978;28;20060;-65
2022/12/02 08:44:26;;;;;;;38.65;21.35;;;;;;;3.22;65.61;100407.47;10430511;28;20044;-64
2022/12/02 08:49:28;;;;;;;31.02;18.90;;;;;;;3.39;65.20;100406.22;10435308;28;20334;-64
2022/12/02 08:54:29;;;;;;;24.55;14.77;;;;;;;3.37;64.71;100395.06;10432075;28;20067;-65
2022/12/02 08:59:31;;;;;;;22.60;14.77;;;;;;;3.14;65.21;100399.03;10429822;28;20398;-64
2022/12/02 09:04:33;;;;;;;18.02;11.80;;;;;;;2.94;64.82;100408.09;10433466;28;20045;-65
2022/12/02 09:09:34;;;;;;;18.00;11.60;;;;;;;2.76;64.96;100412.78;10435344;28;20056;-64
2022/12/02 09:14:36;;;;;;;18.20;12.10;;;;;;;2.88;65.44;100405.63;10430418;28;20512;-66
2022/12/02 09:19:37;;;;;;;18.00;12.05;;;;;;;2.85;65.07;100405.69;10428885;28;20537;-64
2022/12/02 09:24:39;;;;;;;17.95;11.70;;;;;;;2.77;65.11;100410.16;10429021;28;20076;-64
2022/12/02 09:29:41;;;;;;;18.95;12.93;;;;;;;2.71;65.21;100406.84;10435870;28;20057;-65
2022/12/02 09:34:42;;;;;;;16.20;11.20;;;;;;;2.69;65.03;100412.06;10428823;28;20051;-65
2022/12/02 09:39:44;;;;;;;19.02;11.93;;;;;;;3.03;65.30;100407.88;10428640;28;20057;-70
2022/12/02 09:44:48;;;;;;;18.90;12.73;;;;;;;3.14;65.08;100412.81;10429275;28;20096;-72
2022/12/02 09:49:54;;;;;;;18.38;12.15;;;;;;;2.96;64.20;100418.38;10435084;28;20150;-71
2022/12/02 09:54:58;;;;;;;18.00;12.05;;;;;;;2.89;63.92;100422.81;10426279;28;20143;-72
2022/12/02 10:00:04;;;;;;;18.33;12.27;;;;;;;2.73;64.86;100416.28;10423229;28;20049;-70
2022/12/02 10:05:14;;;;;;;20.60;13.20;;;;;;;2.64;64.75;100416.44;10431167;28;20051;-72
2022/12/02 10:10:26;;;;;;;20.90;13.52;;;;;;;2.76;64.74;100403.31;10431263;28;20185;-71
2022/12/02 10:15:28;;;;;;;;;;;;;;;2.23;65.48;100409.50;10432362;28;20505;-72
2022/12/02 10:20:30;;;;;;;21.23;14.25;;;;;;;2.47;65.28;100403.03;10428963;28;19931;-71
2022/12/02 10:25:31;;;;;;;19.35;14.07;;;;;;;2.49;64.81;100396.09;10428124;28;20048;-72
2022/12/02 10:30:33;;;;;;;22.00;15.38;;;;;;;2.67;64.77;100400.91;10436904;28;20096;-71
2022/12/02 10:35:48;;;;;;;25.38;15.98;;;;;;;2.47;65.03;100392.72;10426125;28;20299;-72
2022/12/02 10:40:51;;;;;;;23.08;15.73;;;;;;;2.65;65.22;100382.00;10426643;28;20163;-72
2022/12/02 10:45:57;;;;;;;22.20;15.73;;;;;;;2.58;65.21;100375.25;10441188;28;20417;-72
2022/12/02 10:50:58;;;;;;;22.35;15.88;;;;;;;2.34;64.97;100383.50;10430329;28;20045;-71
2022/12/02 10:56:01;;;;;;;24.05;17.05;;;;;;;2.50;64.70;100379.72;10430260;28;20060;-71
2022/12/02 11:01:09;;;;;;;22.75;15.85;;;;;;;2.26;64.45;100377.63;10425768;28;20049;-71
2022/12/02 11:06:18;;;;;;;25.17;16.38;;;;;;;2.22;64.67;100366.53;10439526;28;20053;-72
2022/12/02 11:11:22;;;;;;;25.00;17.75;;;;;;;2.23;64.96;100368.19;10471705;28;20319;-72
2022/12/02 11:16:27;;;;;;;24.52;16.65;;;;;;;2.22;64.66;100365.66;10449935;28;20057;-72
2022/12/02 11:21:29;;;;;;;27.70;17.70;;;;;;;2.10;65.59;100351.28;10430552;28;20049;-71
2022/12/02 11:27:02;;;;;;;24.25;17.02;;;;;;;2.26;65.25;100356.13;10424690;28;20088;-71
2022/12/02 11:32:22;;;;;;;27.02;18.05;;;;;;;2.32;65.45;100348.28;10449900;28;20056;-71
2022/12/02 11:37:36;;;;;;;29.92;19.38;;;;;;;2.35;65.62;100343.06;10459327;28;20417;-71
2022/12/02 11:42:41;;;;;;;25.55;17.73;;;;;;;2.02;65.67;100334.22;10433942;28;20049;-71
2022/12/02 11:47:54;;;;;;;26.98;18.40;;;;;;;1.94;66.03;100334.38;10446314;28;20052;-71
2022/12/02 11:53:23;;;;;;;25.30;17.83;;;;;;;1.94;66.10;100331.81;10435983;28;20048;-71
2022/12/02 11:58:29;;;;;;;26.90;18.75;;;;;;;2.14;65.66;100328.84;10422284;28;20077;-70
2022/12/02 12:03:32;;;;;;;28.50;18.70;;;;;;;2.14;65.70;100323.66;10425364;28;20500;-71
2022/12/02 12:08:38;;;;;;;27.80;18.30;;;;;;;2.10;65.61;100314.28;10438955;28;20064;-71
2022/12/02 12:14:05;;;;;;;30.02;19.33;;;;;;;2.12;65.83;100310.81;10452147;28;20045;-70
2022/12/02 12:19:12;;;;;;;24.67;17.00;;;;;;;2.08;65.88;100300.56;10451403;28;20136;-71
2022/12/02 12:24:17;;;;;;;27.27;18.60;;;;;;;2.20;65.81;100301.19;10430075;28;20519;-71
2022/12/02 12:29:21;;;;;;;29.40;19.15;;;;;;;2.09;66.26;100299.72;10434578;28;20239;-71
2022/12/02 12:34:22;;;;;;;26.77;18.55;;;;;;;2.13;66.10;100296.19;10463909;28;20060;-70
2022/12/02 12:39:24;;;;;;;26.30;18.23;;;;;;;2.17;65.85;100284.94;10429950;28;20547;-71
2022/12/02 12:44:26;;;;;;;26.73;18.50;;;;;;;2.20;65.94;100277.97;10458253;28;20049;-70
2022/12/02 12:49:33;;;;;;;25.00;17.67;;;;;;;2.29;65.65;100273.50;10447928;28;20057;-71
2022/12/02 12:54:35;;;;;;;27.42;18.60;;;;;;;2.29;65.54;100283.81;10431323;28;20044;-71
2022/12/02 12:59:37;;;;;;;24.23;17.88;;;;;;;2.24;65.41;100265.84;10428655;28;20056;-71
2022/12/02 13:04:38;;;;;;;27.95;17.40;;;;;;;2.26;65.62;100270.97;10430387;28;20195;-71
2022/12/02 13:09:40;;;;;;;25.45;17.20;;;;;;;2.24;65.30;100271.00;10428924;28;20045;-71
2022/12/02 13:14:42;;;;;;;28.83;19.27;;;;;;;2.48;65.77;100269.66;10429035;28;20049;-71
2022/12/02 13:19:43;;;;;;;22.83;16.20;;;;;;;2.67;65.31;100270.94;10423775;28;20051;-71
2022/12/02 13:24:45;;;;;;;24.48;16.70;;;;;;;2.63;65.40;100267.59;10430351;28;20044;-70
2022/12/02 13:29:47;;;;;;;21.48;15.70;;;;;;;2.64;64.73;100265.84;10459554;28;20552;-70
2022/12/02 13:34:48;;;;;;;23.90;16.80;;;;;;;2.76;65.46;100260.41;10427591;28;20521;-70
2022/12/02 13:39:51;;;;;;;23.77;16.73;;;;;;;2.74;65.15;100263.03;10426547;28;20048;-69
2022/12/02 13:44:53;;;;;;;23.83;17.17;;;;;;;2.79;65.45;100265.50;10451675;28;20503;-71
2022/12/02 13:49:55;;;;;;;22.23;14.70;;;;;;;2.69;64.97;100264.00;10440646;28;20057;-70
2022/12/02 13:54:56;;;;;;;21.77;16.45;;;;;;;2.60;65.49;100265.06;10458587;28;20059;-72
2022/12/02 13:59:58;;;;;;;20.73;14.93;;;;;;;2.35;65.22;100263.03;10427228;28;20568;-71
2022/12/02 14:05:00;;;;;;;24.80;16.10;;;;;;;2.34;65.30;100271.69;10426898;28;20056;-71
2022/12/02 14:10:08;;;;;;;22.75;16.17;;;;;;;2.58;65.61;100274.56;10439107;28;20052;-70
2022/12/02 14:15:10;;;;;;;22.80;16.08;;;;;;;2.59;65.65;100272.84;10439681;28;20049;-70
2022/12/02 14:20:12;;;;;;;21.73;15.73;;;;;;;2.62;65.13;100272.78;10434197;28;20053;-70
2022/12/02 14:25:14;;;;;;;21.08;14.88;;;;;;;2.67;65.07;100276.94;10459691;28;20128;-70
2022/12/02 14:30:18;;;;;;;22.02;15.80;;;;;;;2.81;64.86;100285.25;10422433;28;20077;-69
2022/12/02 14:35:20;;;;;;;20.23;14.60;;;;;;;2.66;65.13;100282.16;10425574;28;20053;-70
2022/12/02 14:40:22;;;;;;;19.75;14.23;;;;;;;2.54;64.88;100274.69;10437038;28;20083;-71
2022/12/02 14:45:23;;;;;;;22.63;14.95;;;;;;;2.50;65.10;100271.28;10444265;28;20060;-70
2022/12/02 14:50:28;;;;;;;20.80;14.60;;;;;;;2.29;65.40;100276.06;10432211;28;20103;-71
2022/12/02 14:55:30;;;;;;;18.40;14.00;;;;;;;2.26;65.23;100279.56;10455718;28;20052;-69
2022/12/02 15:00:32;;;;;;;18.30;14.05;;;;;;;2.15;65.57;100289.28;10434039;28;20638;-70
2022/12/02 15:05:34;;;;;;;17.77;13.52;;;;;;;2.20;65.43;100292.59;10424500;28;20128;-71
2022/12/02 15:10:36;;;;;;;18.17;13.23;;;;;;;2.35;65.17;100289.72;10424132;28;20045;-70
2022/12/02 15:15:42;;;;;;;17.52;13.48;;;;;;;2.29;65.11;100302.75;10444815;28;20408;-71
2022/12/02 15:20:52;;;;;;;19.00;14.00;;;;;;;2.32;65.51;100296.69;10423256;28;20658;-70
2022/12/02 15:25:53;;;;;;;18.98;13.07;;;;;;;2.31;65.15;100297.53;10458204;28;20048;-70
2022/12/02 15:30:55;;;;;;;19.73;14.27;;;;;;;2.24;65.98;100304.56;10430347;28;20053;-71
2022/12/02 15:35:57;;;;;;;19.52;14.10;;;;;;;2.26;65.78;100296.78;10439023;28;20134;-72
2022/12/02 15:40:59;;;;;;;17.88;13.60;;;;;;;2.24;65.87;100301.97;10436760;28;20422;-69
2022/12/02 15:46:00;;;;;;;19.77;14.85;;;;;;;2.18;65.99;100299.50;10444040;28;20060;-70
2022/12/02 15:51:02;;;;;;;19.90;13.73;;;;;;;2.30;66.27;100308.75;10430490;28;20049;-70
2022/12/02 15:56:04;;;;;;;21.08;14.90;;;;;;;2.18;66.32;100307.25;10460524;28;20052;-67
2022/12/02 16:01:05;;;;;;;20.23;14.40;;;;;;;2.07;66.37;100310.03;10434942;28;20053;-67
2022/12/02 16:06:07;;;;;;;19.48;14.43;;;;;;;1.96;66.48;100311.13;10429492;28;20665;-67
2022/12/02 16:11:10;;;;;;;19.08;14.43;;;;;;;2.15;66.56;100313.31;10435575;28;20057;-66
2022/12/02 16:16:12;;;;;;;18.95;13.32;;;;;;;2.10;66.34;100314.28;10431254;28;20051;-67
2022/12/02 16:21:14;;;;;;;20.13;14.45;;;;;;;2.17;66.13;100314.13;10434808;28;20493;-67
2022/12/02 16:26:16;;;;;;;19.80;14.38;;;;;;;1.91;66.55;100315.53;10446465;28;20049;-67
2022/12/02 16:31:20;;;;;;;19.58;14.75;;;;;;;2.00;66.65;100323.94;10424394;28;20056;-67
2022/12/02 16:36:22;;;;;;;19.35;13.70;;;;;;;2.10;66.28;100322.03;10428267;28;20130;-67
2022/12/02 16:41:23;;;;;;;17.52;13.90;;;;;;;2.05;66.16;100322.13;10431409;28;20076;-67
2022/12/02 16:46:25;;;;;;;17.92;13.45;;;;;;;1.86;66.50;100325.06;10430094;28;20053;-67
2022/12/02 16:51:27;;;;;;;19.27;13.88;;;;;;;1.77;66.44;100330.38;10429845;28;20041;-66
2022/12/02 16:56:31;;;;;;;17.90;13.45;;;;;;;1.89;66.45;100332.78;10431983;28;20045;-67
2022/12/02 17:01:33;;;;;;;20.05;14.85;;;;;;;1.91;66.56;100338.75;10431203;28;20955;-66
2022/12/02 17:06:36;;;;;;;18.08;13.20;;;;;;;1.86;66.14;100336.25;10427729;28;20188;-67
2022/12/02 17:11:38;;;;;;;19.60;14.70;;;;;;;2.01;66.29;100341.09;10427976;28;20045;-67
2022/12/02 17:16:40;;;;;;;18.30;13.52;;;;;;;1.83;65.92;100335.44;10428378;28;20740;-66
2022/12/02 17:21:42;;;;;;;18.02;13.88;;;;;;;1.77;66.20;100341.56;10429452;28;20138;-67
2022/12/02 17:26:43;;;;;;;18.60;13.50;;;;;;;1.77;65.94;100322.66;10427222;28;20057;-66
2022/12/02 17:31:45;;;;;;;17.55;13.52;;;;;;;1.69;65.85;100338.25;10433849;28;20128;-67
2022/12/02 17:36:49;;;;;;;20.40;13.98;;;;;;;1.70;65.67;100336.53;10428920;28;20162;-66
2022/12/02 17:41:51;;;;;;;18.95;14.25;;;;;;;1.84;65.57;100335.44;10432126;28;20060;-67
2022/12/02 17:46:54;;;;;;;17.77;13.48;;;;;;;1.76;65.50;100341.59;10436692;28;20049;-67
2022/12/02 17:51:56;;;;;;;18.35;13.93;;;;;;;1.79;65.41;100338.94;10441113;28;20053;-67
2022/12/02 17:57:18;;;;;;;;;;;;;;;1.58;65.78;100347.94;10428970;28;20076;-66
2022/12/02 18:02:19;;;;;;;16.40;11.90;;;;;;;1.95;64.83;100341.22;10427565;28;19925;-66
2022/12/02 18:07:21;;;;;;;19.95;14.18;;;;;;;2.03;65.11;100344.50;10425644;28;20060;-66
2022/12/02 18:12:23;;;;;;;18.90;14.07;;;;;;;1.83;64.84;100356.06;10426846;28;20433;-67
2022/12/02 18:17:24;;;;;;;17.75;12.98;;;;;;;1.86;65.02;100348.28;10426303;28;20049;-67
2022/12/02 18:22:27;;;;;;;15.38;10.85;;;;;;;1.59;64.95;100351.31;10431473;28;20056;-67
2022/12/02 18:27:28;;;;;;;16.17;11.70;;;;;;;1.59;65.10;100347.03;10424773;28;20052;-66
2022/12/02 18:32:30;;;;;;;16.15;11.93;;;;;;;1.77;65.24;100351.88;10425800;28;20052;-66
2022/12/02 18:37:32;;;;;;;16.23;12.48;;;;;;;1.58;65.50;100347.06;10427721;28;20055;-66
2022/12/02 18:42:35;;;;;;;16.42;12.45;;;;;;;1.50;65.69;100346.34;10437884;28;20204;-66
2022/12/02 18:47:36;;;;;;;17.58;12.20;;;;;;;1.63;65.44;100342.66;10425137;28;20516;-67
2022/12/02 18:52:38;;;;;;;17.05;12.52;;;;;;;1.46;65.64;100329.22;10427079;28;20075;-67
2022/12/02 18:57:41;;;;;;;16.90;12.48;;;;;;;1.38;65.74;100338.81;10424173;28;20057;-66
2022/12/02 19:02:43;;;;;;;17.27;12.70;;;;;;;1.43;66.01;100340.44;10425052;28;20061;-66
2022/12/02 19:07:45;;;;;;;18.92;12.45;;;;;;;1.49;65.74;100334.31;10436280;28;20082;-67
2022/12/02 19:12:46;;;;;;;17.45;12.60;;;;;;;1.47;65.86;100336.94;10435268;28;20049;-67
2022/12/02 19:17:48;;;;;;;17.38;11.90;;;;;;;1.36;66.03;100334.53;10434448;28;20047;-67
2022/12/02 19:22:50;;;;;;;17.55;12.20;;;;;;;1.41;66.32;100336.16;10433235;28;20045;-67
2022/12/02 19:27:51;;;;;;;16.83;11.93;;;;;;;1.51;66.08;100342.88;10438495;28;20548;-65
2022/12/02 19:32:58;;;;;;;19.15;12.63;;;;;;;1.52;66.21;100339.44;10433187;28;20492;-67
2022/12/02 19:38:00;;;;;;;18.77;12.10;;;;;;;1.50;66.31;100336.88;10443919;28;20045;-67
2022/12/02 19:43:09;;;;;;;16.85;11.73;;;;;;;1.70;66.14;100333.97;10435907;28;20053;-67
2022/12/02 19:48:11;;;;;;;16.70;12.10;;;;;;;1.61;65.87;100334.97;10431217;28;20056;-65
2022/12/02 19:53:12;;;;;;;15.90;11.57;;;;;;;1.35;66.18;100343.13;10444015;28;20075;-65
2022/12/02 19:58:14;;;;;;;16.98;12.10;;;;;;;1.40;66.21;100337.06;10430600;28;20052;-65
2022/12/02 20:03:17;;;;;;;16.75;11.57;;;;;;;1.27;66.37;100339.84;10431797;28;20049;-66
2022/12/02 20:08:19;;;;;;;15.18;11.35;;;;;;;1.18;66.82;100334.81;10439808;28;20056;-67
2022/12/02 20:13:21;;;;;;;16.88;11.63;;;;;;;1.17;66.94;100342.56;10434843;28;20119;-65
2022/12/02 20:18:23;;;;;;;15.93;10.90;;;;;;;1.01;67.14;100336.81;10431859;28;20442;-66
2022/12/02 20:23:26;;;;;;;16.95;11.45;;;;;;;1.12;66.90;100342.63;10434193;28;20080;-66
2022/12/02 20:28:28;;;;;;;17.17;11.75;;;;;;;1.27;66.91;100339.84;10439016;28;21070;-67
2022/12/02 20:33:30;;;;;;;17.77;11.82;;;;;;;1.30;66.74;100338.91;10433960;28;20364;-66
2022/12/02 20:38:32;;;;;;;17.20;11.70;;;;;;;1.05;66.95;100341.03;10431098;28;20045;-66
2022/12/02 20:43:34;;;;;;;17.27;11.07;;;;;;;1.30;66.77;100341.50;10453764;28;20496;-66
2022/12/02 20:48:35;;;;;;;16.90;11.13;;;;;;;1.47;66.65;100338.66;10460966;28;20088;-66
2022/12/02 20:53:38;;;;;;;14.65;10.25;;;;;;;1.53;66.15;100333.38;10464053;28;20040;-67
2022/12/02 20:58:39;;;;;;;14.38;10.07;;;;;;;1.44;66.00;100338.72;10427958;28;20508;-67
2022/12/02 21:03:41;;;;;;;14.40;9.98;;;;;;;1.16;66.01;100344.28;10430363;28;20037;-66
2022/12/02 21:08:43;;;;;;;14.90;9.80;;;;;;;1.28;66.21;100341.53;10436083;28;20053;-66
2022/12/02 21:13:44;;;;;;;15.57;10.80;;;;;;;1.38;65.70;100351.69;10430481;28;20056;-66
2022/12/02 21:18:47;;;;;;;15.38;10.73;;;;;;;1.35;66.14;100339.72;10433995;28;20542;-66
2022/12/02 21:23:49;;;;;;;14.18;10.23;;;;;;;1.34;66.19;100341.41;10427771;28;20056;-69
2022/12/02 21:29:09;;;;;;;16.60;10.60;;;;;;;1.34;65.72;100359.47;10447687;28;20049;-68
2022/12/02 21:34:12;;;;;;;11.55;8.25;;;;;;;1.40;65.89;100347.38;10465157;28;20049;-65
2022/12/02 21:39:20;;;;;;;15.23;10.60;;;;;;;1.38;65.58;100347.38;10428880;28;20056;-65
2022/12/02 21:44:22;;;;;;;14.82;10.27;;;;;;;1.38;65.50;100353.38;10440919;28;20044;-65
2022/12/02 21:49:26;;;;;;;15.02;9.98;;;;;;;1.33;65.41;100349.19;10430152;28;20057;-67
2022/12/02 21:54:27;;;;;;;15.20;10.65;;;;;;;1.45;65.78;100341.25;10428649;28;20053;-65
2022/12/02 21:59:30;;;;;;;13.50;9.40;;;;;;;1.51;65.21;100351.47;10436855;28;20143;-65
2022/12/02 22:04:38;;;;;;;15.02;10.60;;;;;;;1.34;65.26;100362.03;10437337;28;20053;-67
2022/12/02 22:09:46;;;;;;;14.75;10.25;;;;;;;1.30;65.16;100357.81;10429626;28;20147;-67
2022/12/02 22:14:50;;;;;;;14.57;10.45;;;;;;;1.30;65.55;100359.53;10427678;28;20056;-67
2022/12/02 22:19:52;;;;;;;14.93;10.07;;;;;;;1.38;65.22;100362.84;10451946;28;20406;-67
2022/12/02 22:24:54;;;;;;;15.60;10.95;;;;;;;1.41;65.35;100362.78;10435360;28;20060;-65
2022/12/02 22:29:57;;;;;;;16.90;11.27;;;;;;;1.42;65.14;100354.19;10426529;28;20352;-68
2022/12/02 22:34:59;;;;;;;16.38;11.95;;;;;;;1.49;65.25;100365.25;10431920;28;20051;-68
2022/12/02 22:40:01;;;;;;;18.33;11.32;;;;;;;1.47;65.30;100359.25;10426719;28;20889;-68
2022/12/02 22:45:03;;;;;;;17.48;11.27;;;;;;;1.35;65.49;100358.59;10429681;28;20144;-68
2022/12/02 22:50:05;;;;;;;15.93;10.68;;;;;;;1.45;65.09;100368.75;10433297;28;20335;-69
2022/12/02 22:55:07;;;;;;;17.45;11.63;;;;;;;1.51;65.64;100355.75;10427359;28;20045;-69
2022/12/02 23:00:09;;;;;;;16.58;11.38;;;;;;;1.59;64.86;100351.31;10440796;28;20424;-69
2022/12/02 23:05:11;;;;;;;18.30;11.55;;;;;;;1.48;64.96;100348.09;10430524;28;20049;-68